Time;durP1;ratioP1;P1;durP2;ratioP2;P2;SDS_P1;SDS_P2;PMS_P1;PMS_P2;Temp;Humidity;BMP_temperature;BMP_pressure;BME280_temperature;BME280_humidity;BME280_pressure;Samples;Min_cycle;Max_cycle;Signal;HPM_P1;HPM_P2
2022/08/20 00:01:24;;;;;;;11.10;7.18;;;20.40;87.40;;;;;;4992557;28;20057;-71
2022/08/20 00:03:49;;;;;;;10.27;7.70;;;20.40;87.30;;;;;;5004642;28;20054;-71
2022/08/20 00:06:19;;;;;;;9.77;7.15;;;20.40;87.20;;;;;;5005431;28;20157;-71
2022/08/20 00:08:45;;;;;;;8.63;7.72;;;20.40;87.00;;;;;;5007670;28;20052;-71
2022/08/20 00:11:13;;;;;;;10.50;7.72;;;20.40;87.10;;;;;;5008588;28;20046;-71
2022/08/20 00:13:40;;;;;;;;;;;20.30;87.40;;;;;;4990633;28;20046;-73
2022/08/20 00:16:06;;;;;;;9.52;7.07;;;20.40;87.60;;;;;;5056110;28;19913;-70
2022/08/20 00:18:32;;;;;;;10.88;7.22;;;20.40;87.60;;;;;;5021944;28;20478;-71
2022/08/20 00:20:59;;;;;;;9.55;7.18;;;20.40;87.30;;;;;;5018692;28;20536;-71
2022/08/20 00:23:25;;;;;;;9.07;6.97;;;20.40;87.50;;;;;;5026728;28;20053;-71
2022/08/20 00:25:51;;;;;;;12.98;7.53;;;20.40;87.80;;;;;;5025026;28;20119;-71
2022/08/20 00:28:17;;;;;;;8.93;7.63;;;20.30;87.70;;;;;;5018640;28;20056;-71
2022/08/20 00:30:43;;;;;;;8.68;7.35;;;20.30;87.80;;;;;;5022015;28;20038;-71
2022/08/20 00:33:14;;;;;;;11.85;7.93;;;20.30;87.90;;;;;;5003464;28;20427;-71
2022/08/20 00:35:47;;;;;;;10.13;7.40;;;20.20;88.00;;;;;;5014007;28;20107;-71
2022/08/20 00:38:13;;;;;;;10.32;7.25;;;20.20;88.00;;;;;;4997641;28;20057;-71
2022/08/20 00:40:45;;;;;;;10.10;7.47;;;20.20;88.00;;;;;;5012023;28;20446;-71
2022/08/20 00:43:44;;;;;;;8.85;7.95;;;20.20;88.20;;;;;;5019225;28;20064;-71
2022/08/20 00:46:30;;;;;;;9.32;7.68;;;20.10;88.50;;;;;;5000737;28;20041;-71
2022/08/20 00:48:57;;;;;;;9.02;7.60;;;20.10;88.20;;;;;;5012897;28;20045;-70
2022/08/20 00:51:37;;;;;;;9.35;8.20;;;20.00;88.40;;;;;;4991955;28;20038;-71
2022/08/20 00:54:08;;;;;;;11.07;7.82;;;20.00;88.40;;;;;;5009735;28;20440;-71
2022/08/20 00:56:34;;;;;;;10.00;8.27;;;20.00;88.50;;;;;;5013620;28;20356;-72
2022/08/20 00:59:00;;;;;;;11.50;8.60;;;20.00;88.50;;;;;;5007594;28;20049;-71
2022/08/20 01:01:26;;;;;;;11.57;8.32;;;20.00;88.80;;;;;;5038333;28;20049;-72
2022/08/20 01:03:55;;;;;;;14.25;9.43;;;19.90;88.90;;;;;;5007709;28;20061;-71
2022/08/20 01:06:21;;;;;;;12.00;9.40;;;19.90;88.90;;;;;;5007685;28;20049;-71
2022/08/20 01:08:47;;;;;;;11.35;8.90;;;19.80;88.60;;;;;;5010576;28;20054;-71
2022/08/20 01:11:16;;;;;;;12.77;9.60;;;19.90;88.40;;;;;;5007987;28;20050;-71
2022/08/20 01:13:43;;;;;;;11.25;8.93;;;19.90;88.40;;;;;;5013614;28;20046;-71
2022/08/20 01:16:17;;;;;;;11.65;8.75;;;19.90;88.10;;;;;;5008022;28;20072;-71
2022/08/20 01:18:42;;;;;;;11.48;9.80;;;19.90;87.80;;;;;;4991870;28;20042;-71
2022/08/20 01:21:08;;;;;;;11.27;9.23;;;19.80;88.20;;;;;;5022780;28;20364;-71
2022/08/20 01:23:48;;;;;;;11.70;9.80;;;19.80;88.40;;;;;;4992833;28;20050;-71
2022/08/20 01:26:25;;;;;;;11.30;9.13;;;19.80;88.30;;;;;;5020047;28;20172;-71
2022/08/20 01:28:57;;;;;;;12.23;9.10;;;19.80;88.20;;;;;;5016018;28;20108;-72
2022/08/20 01:31:30;;;;;;;11.35;9.68;;;19.80;88.10;;;;;;5019019;28;20052;-71
2022/08/20 01:33:57;;;;;;;11.60;8.98;;;19.80;88.40;;;;;;5020173;28;20050;-72
2022/08/20 01:36:30;;;;;;;11.10;9.07;;;19.80;88.30;;;;;;5009765;28;20150;-71
2022/08/20 01:38:57;;;;;;;10.07;9.00;;;19.80;88.30;;;;;;5024266;28;20042;-72
2022/08/20 01:41:28;;;;;;;10.10;8.75;;;19.80;88.00;;;;;;5000028;28;20052;-72
2022/08/20 01:43:55;;;;;;;9.77;8.68;;;19.90;88.00;;;;;;5008111;28;20053;-72
2022/08/20 01:46:31;;;;;;;10.93;9.15;;;19.90;87.90;;;;;;5007421;28;20553;-71
2022/08/20 01:48:57;;;;;;;10.20;8.82;;;19.80;88.40;;;;;;5038333;28;20065;-71
2022/08/20 01:51:27;;;;;;;10.93;8.73;;;19.80;88.20;;;;;;5009841;28;20048;-71
2022/08/20 01:53:54;;;;;;;10.52;8.43;;;19.80;87.90;;;;;;5007278;28;20046;-72
2022/08/20 01:56:22;;;;;;;10.82;8.27;;;19.80;88.00;;;;;;5002677;28;20056;-71
2022/08/20 01:58:51;;;;;;;10.48;9.15;;;19.80;88.10;;;;;;5027141;28;20044;-71
2022/08/20 02:01:44;;;;;;;9.85;8.85;;;19.80;88.10;;;;;;5009016;28;20487;-71
2022/08/20 02:04:10;;;;;;;9.75;8.73;;;19.70;88.30;;;;;;5004911;28;20053;-72
2022/08/20 02:06:39;;;;;;;9.85;8.45;;;19.70;88.20;;;;;;5010554;28;20042;-70
2022/08/20 02:09:05;;;;;;;9.98;8.57;;;19.80;88.20;;;;;;5009771;28;20670;-71
2022/08/20 02:11:32;;;;;;;9.63;8.63;;;19.80;88.60;;;;;;5009817;28;20719;-71
2022/08/20 02:13:58;;;;;;;10.52;8.27;;;19.80;88.70;;;;;;5019601;28;20153;-71
2022/08/20 02:16:35;;;;;;;10.80;9.18;;;19.80;88.30;;;;;;5010817;28;20207;-71
2022/08/20 02:19:13;;;;;;;10.55;8.20;;;19.90;88.50;;;;;;5014641;28;20386;-71
2022/08/20 02:21:40;;;;;;;11.48;8.55;;;19.80;88.50;;;;;;5006482;28;20056;-71
2022/08/20 02:24:06;;;;;;;9.60;7.90;;;19.80;88.70;;;;;;5005688;28;20080;-72
2022/08/20 02:26:31;;;;;;;9.48;8.55;;;19.80;88.60;;;;;;5008894;28;20061;-71
2022/08/20 02:28:58;;;;;;;11.02;9.30;;;19.80;88.80;;;;;;4997500;28;20054;-72
2022/08/20 02:31:24;;;;;;;10.65;9.55;;;19.80;89.30;;;;;;5009888;28;20045;-71
2022/08/20 02:33:50;;;;;;;11.80;8.30;;;19.70;89.50;;;;;;5036209;28;20045;-71
2022/08/20 02:36:17;;;;;;;11.05;8.75;;;19.70;89.40;;;;;;5008996;28;20056;-71
2022/08/20 02:38:43;;;;;;;11.05;8.32;;;19.70;89.80;;;;;;5008723;28;20132;-71
2022/08/20 02:41:09;;;;;;;10.38;8.98;;;19.70;89.30;;;;;;5009861;28;20120;-71
2022/08/20 02:43:36;;;;;;;11.40;9.48;;;19.70;89.60;;;;;;5002440;28;20081;-71
2022/08/20 02:46:02;;;;;;;12.05;9.32;;;19.70;89.70;;;;;;5006959;28;20476;-71
2022/08/20 02:48:27;;;;;;;9.38;8.15;;;19.70;89.80;;;;;;5007514;28;20073;-72
2022/08/20 02:50:59;;;;;;;10.15;9.07;;;19.60;89.70;;;;;;4996531;28;20043;-72
2022/08/20 02:53:25;;;;;;;10.18;8.98;;;19.60;89.90;;;;;;5018468;28;20047;-72
2022/08/20 02:55:51;;;;;;;11.00;9.65;;;19.60;90.00;;;;;;4994626;28;20046;-72
2022/08/20 02:58:17;;;;;;;10.82;8.52;;;19.60;90.10;;;;;;5007124;28;20163;-73
2022/08/20 03:00:43;;;;;;;10.85;8.52;;;19.60;90.00;;;;;;5014197;28;20050;-71
2022/08/20 03:03:09;;;;;;;10.85;9.23;;;19.60;90.00;;;;;;5004927;28;20053;-72
2022/08/20 03:05:35;;;;;;;11.02;8.52;;;19.60;90.00;;;;;;4993010;28;20084;-72
2022/08/20 03:08:01;;;;;;;11.90;8.85;;;19.50;90.20;;;;;;4989559;28;20626;-72
2022/08/20 03:10:30;;;;;;;11.50;9.30;;;19.50;90.00;;;;;;5006851;28;20079;-72
2022/08/20 03:12:58;;;;;;;11.77;8.25;;;19.50;90.10;;;;;;5016003;28;20099;-71
2022/08/20 03:15:24;;;;;;;12.87;9.93;;;19.50;90.20;;;;;;5001596;28;20093;-72
2022/08/20 03:17:49;;;;;;;11.68;9.80;;;19.50;90.30;;;;;;5006554;28;20423;-71
2022/08/20 03:20:16;;;;;;;9.88;8.90;;;19.50;90.20;;;;;;5009712;28;20046;-71
2022/08/20 03:22:41;;;;;;;11.15;9.07;;;19.50;90.30;;;;;;5012282;28;20380;-71
2022/08/20 03:25:08;;;;;;;12.48;9.65;;;19.50;90.20;;;;;;5034934;28;20064;-71
2022/08/20 03:27:34;;;;;;;12.48;9.40;;;19.50;90.20;;;;;;4996423;28;20045;-71
2022/08/20 03:29:59;;;;;;;9.63;8.68;;;19.50;90.20;;;;;;5016085;28;20478;-71
2022/08/20 03:32:25;;;;;;;9.95;8.95;;;19.50;90.10;;;;;;5005794;28;20373;-71
2022/08/20 03:34:51;;;;;;;12.15;9.38;;;19.50;90.40;;;;;;5005803;28;20529;-71
2022/08/20 03:37:17;;;;;;;10.00;8.95;;;19.50;90.40;;;;;;5020019;28;20053;-71
2022/08/20 03:39:42;;;;;;;10.70;9.68;;;19.40;90.30;;;;;;5012889;28;20119;-71
2022/08/20 03:42:08;;;;;;;12.05;9.75;;;19.40;90.50;;;;;;5010053;28;20041;-71
2022/08/20 03:44:35;;;;;;;10.80;9.70;;;19.40;90.40;;;;;;4996583;28;20491;-71
2022/08/20 03:47:02;;;;;;;11.50;9.48;;;19.40;90.50;;;;;;5004628;28;20072;-71
2022/08/20 03:49:28;;;;;;;13.75;9.57;;;19.30;90.60;;;;;;5017380;28;20049;-71
2022/08/20 03:51:54;;;;;;;10.20;9.18;;;19.30;90.60;;;;;;5018941;28;20431;-71
2022/08/20 03:54:20;;;;;;;13.68;9.68;;;19.30;90.60;;;;;;5013180;28;20046;-71
2022/08/20 03:56:46;;;;;;;12.23;8.80;;;19.30;90.50;;;;;;5013407;28;20042;-71
2022/08/20 03:59:11;;;;;;;12.20;9.45;;;19.30;90.70;;;;;;5004799;28;20116;-69
2022/08/20 04:01:37;;;;;;;12.52;8.90;;;19.30;90.70;;;;;;5011592;28;20475;-68
2022/08/20 04:04:03;;;;;;;11.02;9.00;;;19.30;90.70;;;;;;5017381;28;20729;-68
2022/08/20 04:06:29;;;;;;;11.10;9.10;;;19.30;90.60;;;;;;5011626;28;20099;-68
2022/08/20 04:08:55;;;;;;;12.30;9.82;;;19.30;90.80;;;;;;5010850;28;20113;-68
2022/08/20 04:11:21;;;;;;;15.05;10.63;;;19.20;90.80;;;;;;5034816;28;20523;-69
2022/08/20 04:13:46;;;;;;;12.40;10.23;;;19.10;90.60;;;;;;4983908;28;20061;-68
2022/08/20 04:16:12;;;;;;;12.43;9.90;;;19.10;90.80;;;;;;5011388;28;20049;-68
2022/08/20 04:18:38;;;;;;;11.45;9.07;;;19.00;91.00;;;;;;5001968;28;20049;-68
2022/08/20 04:21:07;;;;;;;12.23;9.30;;;19.10;90.90;;;;;;5009488;28;20060;-68
2022/08/20 04:23:32;;;;;;;10.43;9.32;;;19.10;90.70;;;;;;5008691;28;20153;-68
2022/08/20 04:26:00;;;;;;;11.75;10.32;;;19.10;90.70;;;;;;4999564;28;20069;-68
2022/08/20 04:28:27;;;;;;;13.38;10.23;;;19.00;91.00;;;;;;5010881;28;20180;-68
2022/08/20 04:30:54;;;;;;;12.52;10.32;;;19.00;91.10;;;;;;5015106;28;20041;-68
2022/08/20 04:33:20;;;;;;;11.65;9.68;;;19.00;91.00;;;;;;4976054;28;20058;-68
2022/08/20 04:35:46;;;;;;;12.60;9.45;;;19.10;91.00;;;;;;5021606;28;20073;-68
2022/08/20 04:38:14;;;;;;;10.43;9.05;;;19.10;91.00;;;;;;5004819;28;20081;-68
2022/08/20 04:40:59;;;;;;;11.23;9.65;;;19.00;91.00;;;;;;5005710;28;20480;-68
2022/08/20 04:43:33;;;;;;;10.85;9.70;;;19.00;91.10;;;;;;4997326;28;20049;-67
2022/08/20 04:46:04;;;;;;;11.63;10.13;;;19.00;91.20;;;;;;5009020;28;20124;-68
2022/08/20 04:48:42;;;;;;;9.52;8.52;;;18.90;91.20;;;;;;5011209;28;20080;-68
2022/08/20 04:51:08;;;;;;;10.93;9.32;;;19.00;91.20;;;;;;5039943;28;20803;-68
2022/08/20 04:53:34;;;;;;;10.98;9.30;;;19.10;91.10;;;;;;5002743;28;20048;-68
2022/08/20 04:56:00;;;;;;;12.20;9.23;;;19.10;91.10;;;;;;5037928;28;20049;-68
2022/08/20 04:58:32;;;;;;;10.60;9.10;;;19.10;91.10;;;;;;5011813;28;20471;-67
2022/08/20 05:01:01;;;;;;;11.20;9.68;;;19.00;90.90;;;;;;5012653;28;20053;-69
2022/08/20 05:03:27;;;;;;;10.57;9.52;;;19.10;90.80;;;;;;5014860;28;20125;-70
2022/08/20 05:05:52;;;;;;;11.98;9.45;;;19.10;90.90;;;;;;5008367;28;20136;-69
2022/08/20 05:08:21;;;;;;;11.25;9.77;;;19.10;91.00;;;;;;4996739;28;20041;-67
2022/08/20 05:10:47;;;;;;;11.77;9.98;;;19.10;91.00;;;;;;4997904;28;20141;-67
2022/08/20 05:13:13;;;;;;;10.73;9.63;;;19.10;91.10;;;;;;4985415;28;20384;-68
2022/08/20 05:15:39;;;;;;;13.35;9.35;;;19.10;91.20;;;;;;5005322;28;20046;-68
2022/08/20 05:18:06;;;;;;;11.73;9.15;;;19.10;91.00;;;;;;5022675;28;20054;-68
2022/08/20 05:20:37;;;;;;;12.20;10.32;;;19.10;91.10;;;;;;5017916;28;20079;-69
2022/08/20 05:23:03;;;;;;;11.88;10.70;;;19.10;91.10;;;;;;5006319;28;20052;-67
2022/08/20 05:25:29;;;;;;;12.52;11.10;;;19.10;91.30;;;;;;5000159;28;20054;-67
2022/08/20 05:27:59;;;;;;;15.15;11.60;;;19.10;91.20;;;;;;5015651;28;20042;-67
2022/08/20 05:30:26;;;;;;;13.40;12.00;;;19.10;91.10;;;;;;5033466;28;20049;-68
2022/08/20 05:32:53;;;;;;;12.32;10.93;;;19.20;91.10;;;;;;4990437;28;20099;-68
2022/08/20 05:35:19;;;;;;;12.45;11.18;;;19.20;91.30;;;;;;5034550;28;20118;-68
2022/08/20 05:37:44;;;;;;;12.55;11.23;;;19.30;90.90;;;;;;5010937;28;20752;-68
2022/08/20 05:40:12;;;;;;;13.88;12.45;;;19.30;90.90;;;;;;5018358;28;20519;-68
2022/08/20 05:42:38;;;;;;;14.95;12.93;;;19.40;90.90;;;;;;5019057;28;20049;-68
2022/08/20 05:45:04;;;;;;;15.48;12.15;;;19.40;91.00;;;;;;5052788;28;20075;-67
2022/08/20 05:47:30;;;;;;;17.08;12.88;;;19.40;91.10;;;;;;5035450;28;20049;-67
2022/08/20 05:49:56;;;;;;;17.23;14.65;;;19.50;91.00;;;;;;5006731;28;20115;-68
2022/08/20 05:52:22;;;;;;;16.33;13.40;;;19.50;91.20;;;;;;5012566;28;20440;-68
2022/08/20 05:54:48;;;;;;;15.82;14.15;;;19.50;91.10;;;;;;5018222;28;20747;-68
2022/08/20 05:57:18;;;;;;;19.00;15.93;;;19.50;91.00;;;;;;5002517;28;20120;-68
2022/08/20 05:59:44;;;;;;;17.55;15.75;;;19.60;91.10;;;;;;5017215;28;20056;-68
2022/08/20 06:04:55;;;;;;;18.90;15.60;;;19.60;90.90;;;;;;5034210;28;20475;-72
2022/08/20 06:07:21;;;;;;;18.10;15.63;;;19.60;90.80;;;;;;5006485;28;20053;-71
2022/08/20 06:09:47;;;;;;;22.10;16.33;;;19.60;90.80;;;;;;4976125;28;20056;-72
2022/08/20 06:12:13;;;;;;;17.08;15.27;;;19.60;90.90;;;;;;5016208;28;20190;-72
2022/08/20 06:14:39;;;;;;;17.00;14.82;;;19.70;90.90;;;;;;4973247;28;20830;-72
2022/08/20 06:17:13;;;;;;;15.88;14.10;;;19.70;90.70;;;;;;5009653;28;20106;-72
2022/08/20 06:19:38;;;;;;;16.52;14.80;;;19.80;90.70;;;;;;5013882;28;20574;-73
2022/08/20 06:22:08;;;;;;;17.25;14.32;;;19.80;90.50;;;;;;5009581;28;20042;-72
2022/08/20 06:24:35;;;;;;;17.52;14.32;;;19.80;90.50;;;;;;5011188;28;20145;-72
2022/08/20 06:27:03;;;;;;;18.13;14.77;;;19.80;90.70;;;;;;5007057;28;20620;-73
2022/08/20 06:29:32;;;;;;;15.95;14.25;;;19.80;90.50;;;;;;4993712;28;20053;-71
2022/08/20 06:32:01;;;;;;;17.90;14.02;;;19.90;90.30;;;;;;5016011;28;20050;-71
2022/08/20 06:34:28;;;;;;;17.70;13.23;;;19.90;90.20;;;;;;5036666;28;20268;-71
2022/08/20 06:36:56;;;;;;;15.73;12.88;;;19.90;90.10;;;;;;5009894;28;20053;-71
2022/08/20 06:39:23;;;;;;;18.48;13.88;;;19.90;90.00;;;;;;5018882;28;20048;-71
2022/08/20 06:41:50;;;;;;;18.85;13.43;;;19.90;89.70;;;;;;5011237;28;20046;-71
2022/08/20 06:44:18;;;;;;;16.00;11.75;;;20.00;89.60;;;;;;5006022;28;20055;-72
2022/08/20 06:46:44;;;;;;;12.30;10.70;;;20.00;89.80;;;;;;5012732;28;20073;-70
2022/08/20 06:49:10;;;;;;;14.93;10.73;;;20.00;89.40;;;;;;5058072;28;20145;-70
2022/08/20 06:51:38;;;;;;;15.02;10.48;;;20.10;88.90;;;;;;5007428;28;20073;-71
2022/08/20 06:54:04;;;;;;;11.88;10.77;;;20.10;88.20;;;;;;5005159;28;20412;-71
2022/08/20 06:56:31;;;;;;;10.80;9.70;;;20.10;87.20;;;;;;5008380;28;20050;-71
2022/08/20 06:58:57;;;;;;;13.02;10.93;;;20.10;87.30;;;;;;5014621;28;20045;-70
2022/08/20 07:01:24;;;;;;;12.27;9.75;;;20.20;87.30;;;;;;5005312;28;20053;-70
2022/08/20 07:03:50;;;;;;;12.10;10.48;;;20.10;87.30;;;;;;5017082;28;20056;-71
2022/08/20 07:06:18;;;;;;;11.23;9.15;;;20.20;86.90;;;;;;5011309;28;20037;-73
2022/08/20 07:08:44;;;;;;;11.65;9.20;;;20.20;86.70;;;;;;5017257;28;20072;-72
2022/08/20 07:11:11;;;;;;;9.80;8.52;;;20.20;86.70;;;;;;5012199;28;20045;-70
2022/08/20 07:13:44;;;;;;;10.38;8.77;;;20.20;86.70;;;;;;5008448;28;20057;-71
2022/08/20 07:16:09;;;;;;;13.98;9.27;;;20.30;86.60;;;;;;5018180;28;20080;-72
2022/08/20 07:18:35;;;;;;;11.05;8.35;;;20.30;86.80;;;;;;5044465;28;20088;-71
2022/08/20 07:21:01;;;;;;;10.20;8.85;;;20.40;87.00;;;;;;5003635;28;20184;-68
2022/08/20 07:23:27;;;;;;;9.98;8.77;;;20.40;86.80;;;;;;5010852;28;20041;-72
2022/08/20 07:25:54;;;;;;;10.23;8.77;;;20.40;87.00;;;;;;5016916;28;20466;-69
2022/08/20 07:28:21;;;;;;;10.45;8.77;;;20.40;86.80;;;;;;4975898;28;20042;-69
2022/08/20 07:33:31;;;;;;;11.00;9.60;;;20.50;86.00;;;;;;5029662;28;20041;-70
2022/08/20 07:35:58;;;;;;;10.15;9.15;;;20.50;86.40;;;;;;4996308;28;20445;-70
2022/08/20 07:38:24;;;;;;;13.55;9.52;;;20.40;86.30;;;;;;5019031;28;20050;-69
2022/08/20 07:40:55;;;;;;;12.40;8.88;;;20.40;86.40;;;;;;5017280;28;20061;-69
2022/08/20 07:43:22;;;;;;;12.48;9.10;;;20.50;86.50;;;;;;4998699;28;20136;-67
2022/08/20 07:45:54;;;;;;;11.90;9.27;;;20.60;86.30;;;;;;5017056;28;20162;-68
2022/08/20 07:48:20;;;;;;;11.27;8.80;;;20.60;86.40;;;;;;4999619;28;20398;-68
2022/08/20 07:50:48;;;;;;;10.55;9.40;;;20.70;86.20;;;;;;5012018;28;20052;-69
2022/08/20 07:53:14;;;;;;;;;;;20.70;85.90;;;;;;5012038;28;20088;-70
2022/08/20 07:55:40;;;;;;;11.38;7.95;;;20.80;85.70;;;;;;5052080;28;20251;-70
2022/08/20 07:58:14;;;;;;;13.13;9.32;;;20.90;86.00;;;;;;5008267;28;20050;-69
2022/08/20 08:00:40;;;;;;;11.13;8.88;;;20.90;85.80;;;;;;5054286;28;20060;-69
2022/08/20 08:03:06;;;;;;;12.27;10.10;;;21.00;85.80;;;;;;4997583;28;20049;-69
2022/08/20 08:05:33;;;;;;;14.52;11.23;;;21.00;85.50;;;;;;5013931;28;20107;-69
2022/08/20 08:07:59;;;;;;;12.43;9.13;;;21.00;85.00;;;;;;5010890;28;20132;-68
2022/08/20 08:10:25;;;;;;;13.32;10.45;;;21.00;84.90;;;;;;5023681;28;20045;-68
2022/08/20 08:12:53;;;;;;;11.38;8.82;;;21.00;83.40;;;;;;5008890;28;20103;-68
2022/08/20 08:15:23;;;;;;;;;;;21.00;84.30;;;;;;4992396;28;20050;-68
2022/08/20 08:17:51;;;;;;;9.88;8.25;;;21.10;84.20;;;;;;5010917;28;19913;-69
2022/08/20 08:20:18;;;;;;;11.38;9.48;;;21.20;83.90;;;;;;4980560;28;20046;-69
2022/08/20 08:22:43;;;;;;;12.90;9.98;;;21.20;82.80;;;;;;4998408;28;20085;-71
2022/08/20 08:25:10;;;;;;;12.32;10.35;;;21.30;82.70;;;;;;4994546;28;20057;-71
2022/08/20 08:27:36;;;;;;;12.88;10.50;;;21.20;83.10;;;;;;5018511;28;20065;-69
2022/08/20 08:30:02;;;;;;;12.75;10.90;;;21.30;83.30;;;;;;4991295;28;20057;-68
2022/08/20 08:32:29;;;;;;;13.13;10.70;;;21.30;82.90;;;;;;5011594;28;20050;-67
2022/08/20 08:34:55;;;;;;;10.55;9.43;;;21.20;82.70;;;;;;5019550;28;20042;-68
2022/08/20 08:37:21;;;;;;;10.45;8.68;;;21.20;82.70;;;;;;5011339;28;20139;-69
2022/08/20 08:39:47;;;;;;;11.75;10.13;;;21.30;82.50;;;;;;5024006;28;20042;-68
2022/08/20 08:42:42;;;;;;;12.10;9.65;;;21.20;81.70;;;;;;4986187;28;20535;-69
2022/08/20 08:45:09;;;;;;;10.98;9.88;;;21.10;82.70;;;;;;5053750;28;20046;-69
2022/08/20 08:47:36;;;;;;;11.38;10.07;;;21.10;82.30;;;;;;5024589;28;20048;-71
2022/08/20 08:50:04;;;;;;;12.30;10.50;;;21.20;82.10;;;;;;5016530;28;20471;-69
2022/08/20 08:52:32;;;;;;;10.93;9.82;;;21.20;82.30;;;;;;5014606;28;20490;-69
2022/08/20 08:55:01;;;;;;;10.75;8.82;;;21.10;82.70;;;;;;5011189;28;20057;-69
2022/08/20 08:57:27;;;;;;;13.73;9.13;;;21.20;82.70;;;;;;5015933;28;20098;-70
2022/08/20 09:00:16;;;;;;;12.18;8.80;;;21.30;82.60;;;;;;5045492;28;20053;-70
2022/08/20 09:02:54;;;;;;;;;;;21.30;82.40;;;;;;4981627;28;20050;-69
2022/08/20 09:05:19;;;;;;;12.50;9.35;;;21.30;82.50;;;;;;5056475;28;19963;-69
2022/08/20 09:07:48;;;;;;;12.35;9.00;;;21.30;82.30;;;;;;4994475;28;20049;-70
2022/08/20 09:10:13;;;;;;;;;;;21.30;82.30;;;;;;5016463;28;20081;-69
2022/08/20 09:12:39;;;;;;;16.95;12.23;;;21.30;81.90;;;;;;5018330;28;20322;-69
2022/08/20 09:15:05;;;;;;;12.90;11.55;;;21.30;82.10;;;;;;5046702;28;20056;-69
2022/08/20 09:17:31;;;;;;;12.25;10.93;;;21.30;82.50;;;;;;4998552;28;20049;-69
2022/08/20 09:19:57;;;;;;;14.48;11.38;;;21.30;82.40;;;;;;5021684;28;20534;-69
2022/08/20 09:22:24;;;;;;;12.18;10.40;;;21.40;82.30;;;;;;4994979;28;20120;-68
2022/08/20 09:24:50;;;;;;;13.18;10.90;;;21.40;82.30;;;;;;4980756;28;20116;-69
2022/08/20 09:27:16;;;;;;;11.88;10.60;;;21.40;81.60;;;;;;5035785;28;20460;-69
2022/08/20 09:29:42;;;;;;;13.57;10.15;;;21.40;81.30;;;;;;5017126;28;20049;-68
2022/08/20 09:32:16;;;;;;;10.93;9.23;;;21.40;81.20;;;;;;4987897;28;20394;-69
2022/08/20 09:34:43;;;;;;;11.93;8.88;;;21.40;81.50;;;;;;5045051;28;20056;-69
2022/08/20 09:37:09;;;;;;;12.43;9.25;;;21.50;81.30;;;;;;5027464;28;20053;-69
2022/08/20 09:39:35;;;;;;;12.18;10.07;;;21.40;81.10;;;;;;5011892;28;20053;-70
2022/08/20 09:42:12;;;;;;;11.57;9.30;;;21.50;81.30;;;;;;4996821;28;20114;-69
2022/08/20 09:44:38;;;;;;;10.63;8.20;;;21.50;81.20;;;;;;5020007;28;20061;-68
2022/08/20 09:47:04;;;;;;;9.75;7.95;;;21.50;81.20;;;;;;5009066;28;20060;-68
2022/08/20 09:49:30;;;;;;;11.95;9.20;;;21.60;81.70;;;;;;5021884;28;20061;-69
2022/08/20 09:51:56;;;;;;;13.00;10.15;;;21.70;80.50;;;;;;5023044;28;20046;-69
2022/08/20 09:54:22;;;;;;;11.15;9.27;;;21.70;80.00;;;;;;5010188;28;20152;-68
2022/08/20 09:56:47;;;;;;;10.65;9.13;;;21.80;80.60;;;;;;5023708;28;20050;-68
2022/08/20 09:59:13;;;;;;;12.10;9.73;;;21.80;79.90;;;;;;5010548;28;20514;-68
2022/08/20 10:01:39;;;;;;;11.73;9.15;;;21.80;80.00;;;;;;5009823;28;20130;-68
2022/08/20 10:04:05;;;;;;;13.35;9.73;;;21.80;79.90;;;;;;5019651;28;20558;-69
2022/08/20 10:06:31;;;;;;;11.93;9.80;;;21.90;79.80;;;;;;4990885;28;20056;-68
2022/08/20 10:08:57;;;;;;;11.07;8.93;;;21.80;80.20;;;;;;5016360;28;20164;-68
2022/08/20 10:11:23;;;;;;;12.85;10.80;;;21.90;80.70;;;;;;5010046;28;20459;-68
2022/08/20 10:13:48;;;;;;;11.70;10.50;;;21.80;80.20;;;;;;5014490;28;20131;-68
2022/08/20 10:16:14;;;;;;;13.57;10.48;;;21.80;80.30;;;;;;5008767;28;20123;-69
2022/08/20 10:18:40;;;;;;;12.05;9.43;;;21.70;80.70;;;;;;5013248;28;20049;-68
2022/08/20 10:21:10;;;;;;;10.82;8.60;;;21.70;81.20;;;;;;5011029;28;20057;-68
2022/08/20 10:23:35;;;;;;;11.23;9.70;;;21.90;81.20;;;;;;5026053;28;20053;-68
2022/08/20 10:26:01;;;;;;;15.55;9.75;;;21.90;80.70;;;;;;5022068;28;20141;-68
2022/08/20 10:28:27;;;;;;;12.98;9.20;;;21.90;80.60;;;;;;5013861;28;20476;-69
2022/08/20 10:30:52;;;;;;;11.45;9.60;;;21.90;80.70;;;;;;5009210;28;20069;-68
2022/08/20 10:33:19;;;;;;;13.50;9.55;;;22.00;80.10;;;;;;5026347;28;20066;-69
2022/08/20 10:35:45;;;;;;;11.77;9.48;;;21.90;79.70;;;;;;5013220;28;20053;-68
2022/08/20 10:38:11;;;;;;;11.65;8.98;;;22.00;79.80;;;;;;5022802;28;20128;-68
2022/08/20 10:40:37;;;;;;;11.45;9.65;;;22.00;80.10;;;;;;5009621;28;20518;-68
2022/08/20 10:43:02;;;;;;;11.20;9.52;;;22.00;79.70;;;;;;5020861;28;20519;-68
2022/08/20 10:45:28;;;;;;;12.57;9.73;;;21.90;80.20;;;;;;5016746;28;20508;-68
2022/08/20 10:47:54;;;;;;;12.52;9.02;;;22.00;80.20;;;;;;5010049;28;20049;-68
2022/08/20 10:50:19;;;;;;;12.93;8.25;;;22.10;80.30;;;;;;5008454;28;20053;-68
2022/08/20 10:52:45;;;;;;;11.80;9.02;;;22.20;80.20;;;;;;5026347;28;20053;-68
2022/08/20 10:55:11;;;;;;;12.27;8.95;;;22.30;79.20;;;;;;5018394;28;20124;-68
2022/08/20 10:57:38;;;;;;;12.00;10.57;;;22.30;79.00;;;;;;5018494;28;20477;-68
2022/08/20 11:00:06;;;;;;;13.38;9.55;;;22.20;78.30;;;;;;5018416;28;20125;-68
2022/08/20 11:02:32;;;;;;;14.75;10.70;;;22.20;78.50;;;;;;4993481;28;20060;-67
2022/08/20 11:04:58;;;;;;;10.95;8.85;;;22.30;78.30;;;;;;5003157;28;20050;-68
2022/08/20 11:07:34;;;;;;;13.20;9.95;;;22.30;78.60;;;;;;5008153;28;20057;-67
2022/08/20 11:10:00;;;;;;;11.10;9.65;;;22.40;79.00;;;;;;5016854;28;20049;-67
2022/08/20 11:12:26;;;;;;;11.82;9.38;;;22.40;78.30;;;;;;4998465;28;20092;-68
2022/08/20 11:14:52;;;;;;;9.68;7.68;;;22.30;77.90;;;;;;5008410;28;20929;-67
2022/08/20 11:17:23;;;;;;;10.60;9.30;;;22.30;78.90;;;;;;5047886;28;20065;-68
2022/08/20 11:19:49;;;;;;;11.38;10.18;;;22.30;78.10;;;;;;4997645;28;20070;-68
2022/08/20 11:22:15;;;;;;;9.77;8.05;;;22.30;78.40;;;;;;5031714;28;20041;-68
2022/08/20 11:24:41;;;;;;;9.30;8.32;;;22.30;79.20;;;;;;5006825;28;20134;-67
2022/08/20 11:27:07;;;;;;;14.55;8.55;;;22.40;78.80;;;;;;5036219;28;20049;-67
2022/08/20 11:29:34;;;;;;;13.23;10.90;;;22.40;78.30;;;;;;5007563;28;20069;-69
2022/08/20 11:32:00;;;;;;;10.65;9.55;;;22.40;76.90;;;;;;5010219;28;20111;-68
2022/08/20 11:34:26;;;;;;;12.10;10.70;;;22.50;77.40;;;;;;5010335;28;20050;-67
2022/08/20 11:36:52;;;;;;;15.50;10.07;;;22.60;76.50;;;;;;5002200;28;20058;-68
2022/08/20 11:39:17;;;;;;;11.73;10.00;;;22.60;76.40;;;;;;5012846;28;20464;-68
2022/08/20 11:41:43;;;;;;;12.43;9.23;;;22.70;76.20;;;;;;5035287;28;20049;-68
2022/08/20 11:44:09;;;;;;;11.80;8.60;;;22.90;76.40;;;;;;5004241;28;20057;-68
2022/08/20 11:46:35;;;;;;;10.38;9.27;;;23.10;75.20;;;;;;4992239;28;20077;-69
2022/08/20 11:49:01;;;;;;;11.35;9.65;;;23.40;74.80;;;;;;5008700;28;20124;-68
2022/08/20 11:51:27;;;;;;;12.75;9.23;;;23.40;74.10;;;;;;5008029;28;20046;-68
2022/08/20 11:53:53;;;;;;;11.98;10.77;;;23.50;74.60;;;;;;5011804;28;20053;-68
2022/08/20 11:56:19;;;;;;;12.95;10.65;;;23.40;73.50;;;;;;5037471;28;20049;-69
2022/08/20 11:58:45;;;;;;;12.70;11.27;;;23.30;74.30;;;;;;5018202;28;20095;-68
2022/08/20 12:01:11;;;;;;;12.18;10.95;;;23.10;75.00;;;;;;5012948;28;20046;-68
2022/08/20 12:03:37;;;;;;;10.45;9.35;;;23.00;75.60;;;;;;5020387;28;20099;-68
2022/08/20 12:06:03;;;;;;;11.25;9.80;;;22.90;76.10;;;;;;5009292;28;20046;-68
2022/08/20 12:08:28;;;;;;;12.48;9.40;;;23.00;75.60;;;;;;5010880;28;20041;-68
2022/08/20 12:10:55;;;;;;;10.15;8.90;;;23.10;75.80;;;;;;5009749;28;20053;-68
2022/08/20 12:13:21;;;;;;;12.30;9.70;;;23.20;76.10;;;;;;5023770;28;20049;-67
2022/08/20 12:15:49;;;;;;;11.90;9.98;;;23.20;74.90;;;;;;4999378;28;20506;-68
2022/08/20 12:18:14;;;;;;;12.83;11.63;;;23.20;74.90;;;;;;5023307;28;20472;-67
2022/08/20 12:20:40;;;;;;;12.13;10.90;;;23.20;75.00;;;;;;5023818;28;20108;-68
2022/08/20 12:23:06;;;;;;;11.57;10.40;;;23.20;75.20;;;;;;5020386;28;20442;-68
2022/08/20 12:25:32;;;;;;;11.60;10.50;;;23.40;74.80;;;;;;5021491;28;20060;-68
2022/08/20 12:27:58;;;;;;;12.88;11.15;;;23.40;74.10;;;;;;5022885;28;20054;-68
2022/08/20 12:30:24;;;;;;;17.95;12.07;;;23.50;73.50;;;;;;4999998;28;20202;-69
2022/08/20 12:32:50;;;;;;;13.38;10.70;;;23.50;73.20;;;;;;5014097;28;20147;-69
2022/08/20 12:35:16;;;;;;;12.93;11.73;;;23.60;73.00;;;;;;4979371;28;20380;-69
2022/08/20 12:37:42;;;;;;;13.45;11.75;;;23.50;72.40;;;;;;5010133;28;20042;-68
2022/08/20 12:40:11;;;;;;;11.43;10.23;;;23.50;72.60;;;;;;5013499;28;20531;-69
2022/08/20 12:42:37;;;;;;;12.27;10.85;;;23.50;72.80;;;;;;5017276;28;20049;-69